Time;durP1;ratioP1;P1;durP2;ratioP2;P2;SDS_P1;SDS_P2;PMS_P1;PMS_P2;Temp;Humidity;BMP_temperature;BMP_pressure;BME280_temperature;BME280_humidity;BME280_pressure;Samples;Min_cycle;Max_cycle;Signal;HPM_P1;HPM_P2
2022/06/09 00:00:32;;;;;;;2.35;1.25;;;17.40;83.00;;;;;;5088726;28;20046;-69
2022/06/09 00:03:01;;;;;;;3.05;1.15;;;17.40;83.10;;;;;;5087668;28;20051;-67
2022/06/09 00:05:32;;;;;;;2.72;1.20;;;17.40;83.10;;;;;;5097450;28;20071;-68
2022/06/09 00:08:02;;;;;;;3.28;1.05;;;17.30;83.20;;;;;;5094444;28;20047;-68
2022/06/09 00:10:35;;;;;;;2.70;1.00;;;17.30;83.30;;;;;;5087499;28;20236;-68
2022/06/09 00:13:02;;;;;;;1.95;1.00;;;17.30;83.30;;;;;;5083703;28;20108;-70
2022/06/09 00:15:29;;;;;;;2.85;1.10;;;17.30;83.40;;;;;;5087589;28;20045;-69
2022/06/09 00:17:56;;;;;;;3.40;1.02;;;17.30;83.40;;;;;;5088918;28;20028;-67
2022/06/09 00:20:24;;;;;;;5.30;1.15;;;17.40;83.40;;;;;;5086467;28;20513;-69
2022/06/09 00:22:52;;;;;;;3.40;1.10;;;17.30;83.30;;;;;;5085949;28;20042;-68
2022/06/09 00:25:19;;;;;;;2.58;1.40;;;17.30;83.30;;;;;;5096736;28;20499;-69
2022/06/09 00:27:46;;;;;;;2.88;1.10;;;17.30;83.30;;;;;;5089432;28;20045;-70
2022/06/09 00:30:16;;;;;;;2.53;1.33;;;17.30;83.40;;;;;;5091966;28;20044;-69
2022/06/09 00:32:43;;;;;;;2.97;1.17;;;17.30;83.40;;;;;;5091130;28;20054;-68
2022/06/09 00:35:11;;;;;;;3.00;1.27;;;17.30;83.40;;;;;;5092657;28;20613;-69
2022/06/09 00:37:38;;;;;;;3.00;1.05;;;17.30;83.50;;;;;;5095525;28;20434;-70
2022/06/09 00:40:10;;;;;;;2.60;1.00;;;17.30;83.50;;;;;;5092853;28;20071;-67
2022/06/09 00:42:37;;;;;;;8.52;1.50;;;17.30;83.50;;;;;;5092344;28;20117;-68
2022/06/09 00:45:25;;;;;;;2.40;1.02;;;17.30;83.40;;;;;;5084602;28;20155;-67
2022/06/09 00:47:54;;;;;;;2.60;1.00;;;17.30;83.40;;;;;;5082761;28;20042;-68
2022/06/09 00:50:24;;;;;;;3.28;1.30;;;17.30;83.40;;;;;;5086476;28;20419;-66
2022/06/09 00:52:56;;;;;;;3.05;1.15;;;17.30;83.50;;;;;;5080496;28;20391;-70
2022/06/09 00:55:29;;;;;;;3.90;1.50;;;17.30;83.50;;;;;;5084721;28;20089;-68
2022/06/09 00:57:58;;;;;;;2.83;1.45;;;17.20;83.50;;;;;;5086735;28;20068;-68
2022/06/09 01:00:29;;;;;;;3.85;1.05;;;17.20;83.60;;;;;;5079695;28;20044;-67
2022/06/09 01:02:58;;;;;;;3.20;1.02;;;17.20;83.60;;;;;;5085503;28;20105;-68
2022/06/09 01:05:27;;;;;;;1.73;1.10;;;17.20;83.60;;;;;;5091793;28;20047;-68
2022/06/09 01:07:58;;;;;;;4.07;1.17;;;17.20;83.60;;;;;;5094475;28;20044;-68
2022/06/09 01:10:28;;;;;;;2.72;1.15;;;17.20;83.60;;;;;;5088783;28;20044;-68
2022/06/09 01:12:55;;;;;;;3.30;1.10;;;17.20;83.50;;;;;;5085602;28;20642;-68
2022/06/09 01:15:27;;;;;;;3.38;0.93;;;17.20;83.60;;;;;;5089269;28;20407;-67
2022/06/09 01:18:01;;;;;;;2.55;0.90;;;17.20;83.50;;;;;;5090117;28;20175;-68
2022/06/09 01:20:40;;;;;;;3.78;0.95;;;17.20;83.60;;;;;;5081465;28;20050;-67
2022/06/09 01:23:59;;;;;;;2.60;1.13;;;17.20;83.60;;;;;;5057080;28;20138;-68
2022/06/09 01:26:47;;;;;;;3.47;1.10;;;17.20;83.70;;;;;;5081849;28;20058;-67
2022/06/09 01:29:41;;;;;;;1.90;1.10;;;17.20;83.70;;;;;;5094724;28;20128;-68
2022/06/09 01:32:15;;;;;;;6.10;1.05;;;17.20;83.60;;;;;;5075284;28;20147;-69
2022/06/09 01:34:51;;;;;;;2.03;0.65;;;17.20;83.60;;;;;;5093903;28;20376;-68
2022/06/09 01:37:22;;;;;;;1.45;0.80;;;17.20;83.70;;;;;;5093115;28;20078;-67
2022/06/09 01:39:53;;;;;;;3.97;1.00;;;17.20;83.60;;;;;;5094987;28;20044;-68
2022/06/09 01:42:26;;;;;;;2.13;1.02;;;17.20;83.70;;;;;;5095490;28;20485;-67
2022/06/09 01:44:56;;;;;;;2.20;0.82;;;17.20;83.70;;;;;;5093929;28;20437;-69
2022/06/09 01:47:25;;;;;;;;;;;17.20;83.70;;;;;;5087527;28;20044;-70
2022/06/09 01:49:56;;;;;;;1.77;1.10;;;17.20;83.70;;;;;;5089238;28;19931;-68
2022/06/09 01:52:25;;;;;;;1.83;1.05;;;17.20;83.70;;;;;;5089552;28;20401;-66
2022/06/09 01:54:53;;;;;;;2.60;1.13;;;17.20;83.70;;;;;;5084726;28;20127;-68
2022/06/09 01:57:26;;;;;;;1.70;1.00;;;17.20;83.80;;;;;;5086472;28;20051;-68
2022/06/09 01:59:57;;;;;;;3.85;0.95;;;17.20;83.80;;;;;;5088427;28;20039;-68
2022/06/09 02:02:30;;;;;;;3.80;0.80;;;17.10;83.90;;;;;;5081597;28;20044;-68
2022/06/09 02:05:00;;;;;;;2.88;1.15;;;17.10;83.90;;;;;;5088510;28;20340;-69
2022/06/09 02:07:28;;;;;;;;;;;17.10;83.90;;;;;;5090492;28;20804;-69
2022/06/09 02:09:56;;;;;;;2.50;1.10;;;17.10;83.90;;;;;;5091667;28;19934;-69
2022/06/09 02:12:25;;;;;;;3.65;0.93;;;17.10;84.00;;;;;;5095695;28;20484;-68
2022/06/09 02:14:58;;;;;;;3.00;1.10;;;17.10;84.10;;;;;;5089570;28;20036;-68
2022/06/09 02:17:25;;;;;;;3.20;1.10;;;17.10;84.00;;;;;;5090617;28;20040;-68
2022/06/09 02:19:53;;;;;;;3.70;0.90;;;17.10;83.90;;;;;;5087856;28;20070;-70
2022/06/09 02:22:21;;;;;;;4.80;1.27;;;17.10;83.90;;;;;;5088599;28;20047;-67
2022/06/09 02:24:47;;;;;;;3.85;1.25;;;17.10;83.90;;;;;;5096208;28;20063;-67
2022/06/09 02:27:15;;;;;;;2.38;0.90;;;17.10;83.90;;;;;;5079481;28;20056;-68
2022/06/09 02:29:42;;;;;;;1.95;1.05;;;17.10;83.80;;;;;;5098879;28;20096;-70
2022/06/09 02:32:09;;;;;;;2.95;1.20;;;17.10;83.70;;;;;;5098968;28;20051;-68
2022/06/09 02:34:36;;;;;;;3.30;1.50;;;17.10;83.70;;;;;;5099362;28;20089;-67
2022/06/09 02:37:05;;;;;;;3.10;1.50;;;17.10;83.80;;;;;;5099402;28;20047;-68
2022/06/09 02:39:32;;;;;;;4.95;1.13;;;17.10;83.90;;;;;;5098951;28;20054;-68
2022/06/09 02:41:59;;;;;;;2.45;1.40;;;17.10;83.90;;;;;;5099021;28;20414;-69
2022/06/09 02:44:25;;;;;;;4.47;1.20;;;17.10;83.90;;;;;;5095919;28;20052;-69
2022/06/09 02:46:52;;;;;;;1.67;0.93;;;17.00;83.90;;;;;;5100103;28;20036;-67
2022/06/09 02:49:21;;;;;;;2.25;1.60;;;17.00;83.80;;;;;;5098097;28;20032;-67
2022/06/09 02:51:49;;;;;;;4.18;1.45;;;17.00;83.90;;;;;;5089572;28;20160;-68
2022/06/09 02:54:17;;;;;;;2.03;1.25;;;17.00;83.80;;;;;;5076849;28;20057;-70
2022/06/09 02:56:44;;;;;;;2.60;1.20;;;17.00;83.80;;;;;;5092884;28;20048;-67
2022/06/09 02:59:11;;;;;;;4.88;1.58;;;17.00;83.80;;;;;;5094163;28;20048;-69
2022/06/09 03:01:38;;;;;;;5.22;1.50;;;16.90;83.80;;;;;;5085158;28;20044;-66
2022/06/09 03:04:06;;;;;;;3.33;1.63;;;16.90;83.90;;;;;;5090655;28;20514;-70
2022/06/09 03:06:33;;;;;;;4.88;2.05;;;16.90;83.90;;;;;;5091167;28;20031;-67
2022/06/09 03:09:00;;;;;;;3.38;1.80;;;16.90;83.90;;;;;;5097103;28;20122;-68
2022/06/09 03:11:31;;;;;;;4.57;1.58;;;16.90;83.90;;;;;;5083981;28;20438;-69
2022/06/09 03:13:58;;;;;;;3.50;1.42;;;16.80;84.00;;;;;;5086900;28;20039;-68
2022/06/09 03:16:25;;;;;;;2.97;1.27;;;16.80;84.00;;;;;;5089173;28;20055;-70
2022/06/09 03:18:52;;;;;;;4.03;1.63;;;16.80;84.00;;;;;;5098656;28;20499;-68
2022/06/09 03:21:19;;;;;;;3.85;1.52;;;16.80;84.00;;;;;;5097366;28;20052;-68
2022/06/09 03:23:46;;;;;;;3.67;1.63;;;16.80;83.90;;;;;;5099863;28;20076;-68
2022/06/09 03:26:13;;;;;;;2.50;1.58;;;16.80;83.80;;;;;;5099473;28;20426;-67
2022/06/09 03:28:41;;;;;;;2.28;1.40;;;16.80;83.80;;;;;;5100430;28;20057;-67
2022/06/09 03:31:08;;;;;;;4.25;1.45;;;16.80;83.80;;;;;;5099114;28;20521;-68
2022/06/09 03:33:35;;;;;;;3.65;1.60;;;16.70;83.80;;;;;;5090701;28;20120;-68
2022/06/09 03:36:03;;;;;;;2.78;1.60;;;16.80;83.90;;;;;;5092158;28;20036;-68
2022/06/09 03:38:30;;;;;;;5.82;1.80;;;16.80;83.80;;;;;;5071240;28;20048;-69
2022/06/09 03:40:57;;;;;;;3.60;2.00;;;16.80;83.80;;;;;;5089978;28;20513;-68
2022/06/09 03:43:24;;;;;;;3.92;1.75;;;16.80;83.80;;;;;;5092270;28;20040;-67
2022/06/09 03:45:53;;;;;;;5.40;1.42;;;16.80;83.80;;;;;;5092206;28;20048;-68
2022/06/09 03:48:20;;;;;;;5.40;1.35;;;16.80;83.70;;;;;;5098569;28;20128;-68
2022/06/09 03:50:47;;;;;;;3.35;1.55;;;16.80;83.80;;;;;;5093582;28;20093;-68
2022/06/09 03:53:14;;;;;;;4.78;1.60;;;16.70;83.90;;;;;;5094421;28;20044;-68
2022/06/09 03:55:42;;;;;;;2.08;1.30;;;16.70;83.90;;;;;;5089590;28;20044;-69
2022/06/09 03:58:09;;;;;;;3.75;1.60;;;16.70;84.00;;;;;;5088479;28;20050;-68
2022/06/09 04:00:37;;;;;;;3.97;1.50;;;16.70;84.00;;;;;;5084151;28;20051;-66
2022/06/09 04:03:06;;;;;;;4.00;1.80;;;16.70;84.10;;;;;;5081450;28;20526;-68
2022/06/09 04:05:33;;;;;;;2.72;1.30;;;16.80;84.00;;;;;;5071319;28;20500;-69
2022/06/09 04:08:01;;;;;;;3.45;1.83;;;16.80;84.00;;;;;;5080675;28;20038;-67
2022/06/09 04:10:34;;;;;;;3.15;1.70;;;16.80;84.00;;;;;;5085334;28;20288;-67
2022/06/09 04:13:01;;;;;;;3.53;1.52;;;16.80;84.00;;;;;;5068484;28;20147;-69
2022/06/09 04:15:29;;;;;;;5.28;2.08;;;16.80;84.00;;;;;;5087012;28;20500;-67
2022/06/09 04:18:04;;;;;;;5.45;2.10;;;16.90;83.90;;;;;;5090586;28;20048;-67
2022/06/09 04:20:33;;;;;;;3.40;1.92;;;16.90;83.80;;;;;;5083580;28;20605;-68
2022/06/09 04:23:00;;;;;;;4.43;2.07;;;16.90;83.80;;;;;;5095747;28;20048;-68
2022/06/09 04:25:28;;;;;;;4.45;2.08;;;16.80;83.70;;;;;;5089429;28;20043;-67
2022/06/09 04:27:55;;;;;;;3.05;1.70;;;17.00;83.50;;;;;;5085891;28;20043;-69
2022/06/09 04:30:24;;;;;;;4.80;1.77;;;17.00;83.50;;;;;;5067142;28;20047;-68
2022/06/09 04:32:52;;;;;;;3.90;1.80;;;16.90;83.50;;;;;;5084512;28;20756;-68
2022/06/09 04:35:19;;;;;;;5.82;2.15;;;16.90;83.50;;;;;;5085394;28;20472;-69
2022/06/09 04:38:03;;;;;;;5.38;1.80;;;16.90;83.60;;;;;;5086489;28;20050;-69
2022/06/09 04:40:35;;;;;;;4.13;2.17;;;16.90;83.70;;;;;;5085823;28;20048;-67
2022/06/09 04:43:05;;;;;;;4.38;2.00;;;16.90;83.70;;;;;;5093382;28;20119;-68
2022/06/09 04:45:33;;;;;;;4.32;2.28;;;16.90;83.80;;;;;;5097614;28;20062;-69
2022/06/09 04:48:00;;;;;;;6.07;1.85;;;17.20;83.20;;;;;;5098939;28;20398;-67
2022/06/09 04:50:27;;;;;;;7.75;2.75;;;17.20;83.10;;;;;;5097325;28;20483;-69
2022/06/09 04:52:57;;;;;;;5.10;2.50;;;17.30;82.50;;;;;;5078365;28;20195;-67
2022/06/09 04:55:24;;;;;;;4.60;2.75;;;17.20;82.70;;;;;;5095829;28;20495;-68
2022/06/09 04:57:51;;;;;;;4.38;2.63;;;17.20;82.60;;;;;;5095360;28;20044;-67
2022/06/09 05:00:19;;;;;;;5.40;2.65;;;17.20;82.60;;;;;;5085703;28;20772;-68
2022/06/09 05:02:46;;;;;;;5.55;3.38;;;17.20;82.80;;;;;;5085751;28;20067;-67
2022/06/09 05:05:20;;;;;;;5.45;2.83;;;17.30;82.50;;;;;;5089798;28;20027;-67
2022/06/09 05:07:47;;;;;;;6.28;2.17;;;17.20;82.60;;;;;;5082941;28;20490;-70
2022/06/09 05:10:16;;;;;;;4.35;2.47;;;17.20;82.50;;;;;;5083027;28;20465;-68
2022/06/09 05:12:43;;;;;;;4.53;2.33;;;17.10;82.60;;;;;;5082286;28;20046;-69
2022/06/09 05:15:14;;;;;;;5.45;2.47;;;17.10;82.70;;;;;;5088603;28;20127;-68
2022/06/09 05:17:41;;;;;;;5.43;2.70;;;17.10;82.80;;;;;;5090263;28;20052;-68
2022/06/09 05:20:12;;;;;;;4.60;2.30;;;17.10;83.00;;;;;;5089325;28;20044;-67
2022/06/09 05:22:39;;;;;;;4.85;2.25;;;17.10;82.80;;;;;;5098459;28;20499;-67
2022/06/09 05:25:08;;;;;;;4.00;2.28;;;17.30;82.90;;;;;;5096234;28;20111;-68
2022/06/09 05:27:36;;;;;;;3.22;2.05;;;17.70;81.20;;;;;;5099684;28;20047;-69
2022/06/09 05:30:04;;;;;;;4.05;2.40;;;17.70;80.30;;;;;;5094259;28;20518;-68
2022/06/09 05:32:31;;;;;;;5.63;2.40;;;17.60;80.70;;;;;;5095688;28;20062;-67
2022/06/09 05:34:58;;;;;;;6.78;2.33;;;17.60;80.60;;;;;;5089415;28;20031;-67
2022/06/09 05:44:50;;;;;;;4.07;2.10;;;17.50;80.80;;;;;;5093373;28;20134;-69
2022/06/09 05:45:43;;;;;;;3.67;1.80;;;17.70;80.40;;;;;;5097356;28;20447;-68
2022/06/09 05:48:10;;;;;;;5.70;1.92;;;18.10;78.60;;;;;;5099792;28;20135;-69
2022/06/09 05:50:38;;;;;;;8.27;2.45;;;18.10;79.20;;;;;;5098450;28;20564;-69
2022/06/09 05:53:06;;;;;;;3.67;1.85;;;18.00;78.50;;;;;;5096562;28;20105;-68
2022/06/09 05:55:33;;;;;;;6.25;2.42;;;18.10;78.50;;;;;;5098318;28;20050;-68
2022/06/09 05:58:01;;;;;;;4.00;1.90;;;17.90;78.90;;;;;;5098981;28;20062;-67
2022/06/09 06:00:28;;;;;;;4.85;2.05;;;17.70;79.10;;;;;;5096199;28;20094;-68
2022/06/09 06:02:55;;;;;;;5.03;1.70;;;17.60;79.40;;;;;;5098905;28;20143;-69
2022/06/09 06:08:07;;;;;;;6.45;2.15;;;17.60;79.60;;;;;;5098977;28;20425;-69
2022/06/09 06:10:34;;;;;;;3.90;1.50;;;17.50;79.60;;;;;;5098359;28;20043;-68
2022/06/09 06:13:02;;;;;;;3.55;1.80;;;17.50;79.80;;;;;;5097969;28;20039;-68
2022/06/09 06:15:31;;;;;;;4.32;1.60;;;17.60;79.30;;;;;;5098956;28;20044;-67
2022/06/09 06:18:02;;;;;;;3.38;1.42;;;17.70;79.00;;;;;;5098485;28;20578;-68
2022/06/09 06:20:29;;;;;;;3.60;1.80;;;17.70;78.80;;;;;;5099475;28;20496;-67
2022/06/09 06:22:57;;;;;;;4.10;1.55;;;17.60;78.90;;;;;;5101450;28;20047;-69
2022/06/09 06:25:24;;;;;;;3.30;1.30;;;17.60;78.80;;;;;;5097776;28;20147;-68
2022/06/09 06:27:51;;;;;;;6.68;1.70;;;17.70;78.40;;;;;;5098587;28;20058;-68
2022/06/09 06:30:21;;;;;;;4.78;1.83;;;17.70;78.60;;;;;;5102398;28;20048;-69
2022/06/09 06:32:48;;;;;;;4.70;1.77;;;17.60;78.60;;;;;;5099288;28;20043;-70
2022/06/09 06:35:15;;;;;;;3.28;1.50;;;17.60;78.80;;;;;;5081515;28;20139;-69
2022/06/09 06:37:42;;;;;;;4.55;1.77;;;17.60;78.80;;;;;;5099475;28;20872;-69
2022/06/09 06:40:12;;;;;;;4.93;1.92;;;17.70;78.70;;;;;;5100191;28;20484;-68
2022/06/09 06:42:39;;;;;;;9.55;3.00;;;17.70;78.20;;;;;;5098997;28;20047;-70
2022/06/09 06:45:07;;;;;;;9.95;3.65;;;17.70;78.30;;;;;;5100355;28;20105;-69
2022/06/09 06:47:35;;;;;;;5.45;2.72;;;17.70;78.30;;;;;;5099965;28;20044;-69
2022/06/09 06:50:02;;;;;;;6.32;2.53;;;17.80;77.90;;;;;;5100676;28;20499;-68
2022/06/09 06:52:29;;;;;;;4.93;2.10;;;17.70;78.10;;;;;;5091941;28;20043;-69
2022/06/09 06:54:56;;;;;;;3.20;1.77;;;17.70;78.30;;;;;;5099900;28;20499;-67
2022/06/09 06:57:23;;;;;;;7.13;2.38;;;17.70;78.20;;;;;;5100509;28;20051;-69
2022/06/09 06:59:50;;;;;;;6.60;2.20;;;17.70;78.40;;;;;;5096666;28;20044;-68
2022/06/09 07:02:18;;;;;;;4.65;1.95;;;17.80;78.20;;;;;;5093468;28;20051;-68
2022/06/09 07:04:46;;;;;;;3.17;1.45;;;17.80;78.30;;;;;;5100384;28;20093;-68
2022/06/09 07:07:13;;;;;;;5.22;1.80;;;17.80;78.50;;;;;;5097939;28;20051;-68
2022/06/09 07:09:40;;;;;;;3.45;1.65;;;17.80;78.20;;;;;;5099622;28;20052;-69
2022/06/09 07:12:08;;;;;;;4.30;1.83;;;17.80;78.20;;;;;;5100232;28;20075;-69
2022/06/09 07:14:35;;;;;;;5.93;1.60;;;17.80;78.10;;;;;;5100967;28;20126;-69
2022/06/09 07:17:03;;;;;;;5.50;1.58;;;17.90;78.10;;;;;;5099870;28;20052;-69
2022/06/09 07:19:30;;;;;;;4.18;1.85;;;17.90;77.70;;;;;;5099564;28;20043;-69
2022/06/09 07:21:59;;;;;;;2.65;1.58;;;17.90;77.60;;;;;;5096444;28;21546;-68
2022/06/09 07:24:26;;;;;;;6.28;2.10;;;17.90;77.20;;;;;;5096200;28;20362;-69
2022/06/09 07:26:53;;;;;;;6.10;1.63;;;17.90;76.90;;;;;;5098138;28;20162;-69
2022/06/09 07:29:20;;;;;;;3.25;1.25;;;18.00;76.90;;;;;;5098020;28;20040;-69
2022/06/09 07:31:47;;;;;;;3.72;1.42;;;18.10;76.80;;;;;;5097291;28;20410;-69
2022/06/09 07:34:14;;;;;;;6.40;1.70;;;18.10;76.50;;;;;;5098046;28;20075;-69
2022/06/09 07:36:41;;;;;;;3.72;1.50;;;18.10;76.10;;;;;;5097271;28;20503;-68
2022/06/09 07:39:10;;;;;;;6.80;1.30;;;18.00;75.90;;;;;;5097671;28;20052;-69
2022/06/09 07:41:37;;;;;;;4.13;1.45;;;18.10;75.70;;;;;;5096121;28;20068;-68
2022/06/09 07:44:06;;;;;;;3.83;0.98;;;18.10;76.30;;;;;;5095990;28;20044;-68
2022/06/09 07:46:34;;;;;;;3.20;1.20;;;18.20;76.60;;;;;;5097262;28;20071;-69
2022/06/09 07:49:02;;;;;;;2.97;1.45;;;18.20;76.50;;;;;;5095219;28;20047;-69
2022/06/09 07:51:30;;;;;;;2.38;1.15;;;18.30;76.00;;;;;;5093298;28;20059;-69
2022/06/09 07:53:58;;;;;;;4.38;1.67;;;18.30;75.70;;;;;;5098724;28;20491;-68
2022/06/09 07:56:27;;;;;;;5.13;1.55;;;18.50;75.50;;;;;;5098915;28;20042;-68
2022/06/09 07:58:54;;;;;;;3.20;1.00;;;18.50;75.30;;;;;;5097774;28;20043;-69
2022/06/09 08:01:22;;;;;;;5.22;1.27;;;18.70;74.80;;;;;;5095045;28;20479;-69
2022/06/09 08:03:49;;;;;;;1.90;0.80;;;18.90;74.30;;;;;;5100826;28;20448;-69
2022/06/09 08:06:16;;;;;;;3.47;1.00;;;19.10;74.30;;;;;;5097947;28;20115;-68
2022/06/09 08:08:43;;;;;;;1.55;0.80;;;19.30;73.50;;;;;;5098831;28;20048;-69
2022/06/09 08:11:10;;;;;;;4.25;1.10;;;19.40;73.50;;;;;;5097945;28;20411;-68
2022/06/09 08:13:38;;;;;;;4.93;1.30;;;19.40;72.80;;;;;;5098916;28;20062;-68
2022/06/09 08:16:07;;;;;;;2.28;0.90;;;19.30;72.70;;;;;;5098413;28;20122;-69
2022/06/09 08:18:34;;;;;;;2.83;1.10;;;19.50;73.40;;;;;;5098275;28;20051;-68
2022/06/09 08:21:01;;;;;;;2.47;1.00;;;19.60;72.00;;;;;;5099819;28;20492;-68
2022/06/09 08:23:29;;;;;;;3.50;0.90;;;19.80;70.90;;;;;;5099901;28;20059;-69
2022/06/09 08:25:59;;;;;;;4.13;1.08;;;20.20;69.20;;;;;;5098763;28;20406;-69
2022/06/09 08:28:27;;;;;;;3.85;1.10;;;20.50;69.10;;;;;;5099828;28;20088;-69
2022/06/09 08:30:58;;;;;;;2.17;1.13;;;20.60;68.80;;;;;;5098676;28;20050;-69
2022/06/09 08:33:26;;;;;;;5.30;1.10;;;20.70;68.20;;;;;;5099304;28;20507;-69
2022/06/09 08:35:54;;;;;;;6.03;1.10;;;20.80;68.40;;;;;;5096998;28;20040;-68
2022/06/09 08:38:21;;;;;;;3.13;0.90;;;20.60;67.90;;;;;;5100918;28;20123;-69
2022/06/09 08:40:55;;;;;;;4.00;1.00;;;20.60;67.80;;;;;;5095807;28;20135;-68
2022/06/09 08:43:32;;;;;;;3.47;0.98;;;20.60;68.50;;;;;;5088699;28;20660;-68
2022/06/09 08:46:06;;;;;;;2.80;1.30;;;20.60;67.60;;;;;;5092602;28;20046;-69
2022/06/09 08:48:41;;;;;;;2.38;1.05;;;20.60;67.60;;;;;;5089363;28;20061;-69
2022/06/09 08:51:13;;;;;;;1.98;0.80;;;20.60;66.40;;;;;;5090055;28;20517;-69
2022/06/09 08:53:46;;;;;;;5.65;1.13;;;20.80;65.60;;;;;;5083939;28;20131;-68
2022/06/09 08:56:26;;;;;;;2.63;0.77;;;20.80;65.40;;;;;;5092006;28;20058;-68
2022/06/09 08:58:57;;;;;;;3.30;0.75;;;20.60;65.60;;;;;;5091857;28;20394;-69
2022/06/09 09:01:33;;;;;;;5.53;0.90;;;20.70;65.50;;;;;;5083853;28;20542;-70
2022/06/09 09:04:06;;;;;;;3.92;0.93;;;20.60;65.60;;;;;;5088670;28;20039;-69
2022/06/09 09:06:39;;;;;;;1.58;0.75;;;20.60;64.70;;;;;;5088982;28;20043;-70
2022/06/09 09:09:14;;;;;;;3.60;0.80;;;20.80;64.60;;;;;;5089669;28;20525;-70
2022/06/09 09:11:53;;;;;;;3.72;1.10;;;20.60;64.50;;;;;;5086106;28;20051;-69
2022/06/09 09:14:25;;;;;;;3.22;1.48;;;20.40;65.40;;;;;;5089635;28;20071;-70
2022/06/09 09:17:05;;;;;;;5.40;2.22;;;20.40;66.00;;;;;;5088277;28;20052;-68
2022/06/09 09:19:44;;;;;;;4.78;2.35;;;20.30;66.50;;;;;;5086337;28;20926;-69
2022/06/09 09:22:20;;;;;;;3.58;1.52;;;20.50;66.10;;;;;;5090786;28;20086;-70
2022/06/09 09:24:59;;;;;;;3.80;1.60;;;20.50;66.00;;;;;;5093242;28;20491;-68
2022/06/09 09:27:34;;;;;;;2.03;0.97;;;20.50;65.80;;;;;;5088802;28;20312;-68
2022/06/09 09:30:11;;;;;;;4.60;1.75;;;20.60;65.60;;;;;;5088426;28;20502;-68
2022/06/09 09:32:48;;;;;;;9.88;3.10;;;20.70;65.80;;;;;;5085518;28;20042;-69
2022/06/09 09:35:19;;;;;;;5.57;1.75;;;20.90;65.40;;;;;;5093114;28;20046;-68
2022/06/09 09:37:49;;;;;;;4.32;1.75;;;20.90;65.30;;;;;;5090193;28;20046;-67
2022/06/09 09:40:28;;;;;;;2.97;1.17;;;21.10;64.60;;;;;;5091501;28;20056;-69
2022/06/09 09:42:59;;;;;;;4.55;0.95;;;21.30;64.00;;;;;;5088329;28;20530;-69
2022/06/09 09:45:35;;;;;;;3.10;0.70;;;21.40;63.70;;;;;;5091773;28;20135;-69
2022/06/09 09:48:25;;;;;;;2.45;0.65;;;21.50;63.50;;;;;;5089942;28;20048;-69
2022/06/09 09:50:56;;;;;;;5.03;1.00;;;21.50;63.40;;;;;;5088075;28;20047;-70
2022/06/09 09:53:33;;;;;;;2.58;1.25;;;21.40;63.00;;;;;;5086960;28;20051;-71
2022/06/09 09:56:05;;;;;;;2.60;0.75;;;21.40;63.40;;;;;;5091995;28;20047;-69
2022/06/09 09:58:38;;;;;;;2.33;0.68;;;21.60;63.60;;;;;;5087014;28;20128;-68
2022/06/09 10:01:26;;;;;;;1.88;0.50;;;21.60;62.90;;;;;;5088231;28;20122;-70
2022/06/09 10:09:33;;;;;;;3.17;0.80;;;21.80;61.50;;;;;;5090080;28;20111;-69
2022/06/09 10:12:08;;;;;;;1.55;0.52;;;21.90;61.00;;;;;;5091158;28;20128;-69
2022/06/09 10:14:52;;;;;;;2.45;0.63;;;21.90;60.90;;;;;;5099549;28;20518;-69
2022/06/09 10:17:37;;;;;;;4.95;1.65;;;21.90;60.90;;;;;;5095382;28;20052;-69
2022/06/09 10:20:26;;;;;;;4.07;1.13;;;22.10;61.20;;;;;;5088091;28;20043;-67
2022/06/09 10:23:01;;;;;;;3.13;1.08;;;22.00;61.10;;;;;;5090315;28;20042;-68
2022/06/09 10:25:33;;;;;;;4.60;1.33;;;21.90;61.10;;;;;;5087938;28;20046;-68
2022/06/09 10:28:06;;;;;;;5.80;1.08;;;21.80;61.70;;;;;;5090488;28;20048;-69
2022/06/09 10:30:41;;;;;;;4.55;1.33;;;21.60;62.10;;;;;;5090074;28;20055;-68
2022/06/09 10:33:16;;;;;;;6.15;1.20;;;21.40;62.90;;;;;;5090753;28;20404;-69
2022/06/09 10:35:50;;;;;;;3.30;1.08;;;21.20;64.60;;;;;;5091946;28;20047;-69
2022/06/09 10:38:25;;;;;;;2.83;1.10;;;21.10;65.60;;;;;;5087269;28;20051;-68
2022/06/09 10:40:56;;;;;;;5.13;1.38;;;21.00;66.20;;;;;;5086266;28;20486;-69
2022/06/09 10:43:36;;;;;;;7.07;1.17;;;20.80;67.60;;;;;;5088731;28;20514;-69
2022/06/09 10:46:15;;;;;;;5.18;1.10;;;20.70;69.10;;;;;;5090387;28;20138;-68
2022/06/09 10:57:32;;;;;;;8.40;2.97;;;20.30;71.90;;;;;;5088120;28;20058;-68
2022/06/09 11:00:05;;;;;;;6.88;2.08;;;20.30;71.80;;;;;;5093279;28;20046;-68
2022/06/09 11:02:34;;;;;;;6.32;2.10;;;20.30;71.80;;;;;;5090906;28;20340;-68
2022/06/09 11:05:04;;;;;;;7.57;2.08;;;20.20;72.70;;;;;;5088255;28;20055;-68
2022/06/09 11:07:48;;;;;;;5.70;2.33;;;20.10;72.90;;;;;;5082540;28;20488;-69
2022/06/09 11:10:27;;;;;;;3.17;1.52;;;20.10;73.60;;;;;;5086900;28;20032;-69
2022/06/09 11:13:12;;;;;;;5.07;1.40;;;20.00;74.20;;;;;;5088059;28;20085;-69
2022/06/09 11:15:46;;;;;;;5.13;1.80;;;19.90;74.20;;;;;;5087246;28;20518;-68
2022/06/09 11:18:25;;;;;;;5.18;1.48;;;19.90;75.00;;;;;;5088762;28;20051;-68
2022/06/09 11:21:09;;;;;;;9.50;2.10;;;19.90;75.60;;;;;;5084473;28;20109;-70
2022/06/09 11:23:53;;;;;;;4.22;1.52;;;19.90;76.00;;;;;;5090087;28;20121;-69
2022/06/09 11:26:28;;;;;;;5.22;1.30;;;20.10;75.40;;;;;;5090182;28;20123;-68
2022/06/09 11:29:07;;;;;;;4.15;1.73;;;20.10;74.40;;;;;;5091150;28;20495;-69
2022/06/09 11:31:46;;;;;;;6.73;1.47;;;20.10;75.40;;;;;;5088189;28;20122;-69
2022/06/09 11:34:39;;;;;;;5.15;1.50;;;20.10;75.10;;;;;;5086549;28;20482;-69
2022/06/09 11:37:17;;;;;;;5.70;1.85;;;20.30;74.90;;;;;;5069218;28;20059;-70
2022/06/09 11:40:08;;;;;;;7.30;3.05;;;20.30;74.80;;;;;;5088206;28;20044;-67
2022/06/09 11:42:51;;;;;;;7.13;1.73;;;20.50;75.20;;;;;;5090347;28;20049;-67
2022/06/09 11:45:31;;;;;;;4.35;1.30;;;20.50;73.70;;;;;;5087823;28;20120;-68
2022/06/09 11:48:01;;;;;;;2.75;1.00;;;20.50;72.00;;;;;;5086970;28;20052;-68
2022/06/09 11:50:34;;;;;;;3.38;1.30;;;20.50;71.70;;;;;;5089402;28;20582;-68
2022/06/09 11:53:02;;;;;;;5.18;1.83;;;20.60;71.80;;;;;;5086401;28;20050;-68
2022/06/09 11:58:44;;;;;;;12.88;5.35;;;21.00;71.10;;;;;;5087091;28;20047;-68
2022/06/09 12:01:17;;;;;;;;;;;21.10;70.80;;;;;;5083434;28;20582;-69
2022/06/09 12:04:01;;;;;;;6.75;1.80;;;21.20;70.10;;;;;;5086958;28;20026;-67
2022/06/09 12:06:42;;;;;;;4.88;1.35;;;21.10;69.20;;;;;;5085423;28;20445;-68
2022/06/09 12:09:20;;;;;;;6.03;1.15;;;21.00;69.40;;;;;;5087704;28;20043;-69
2022/06/09 12:11:57;;;;;;;3.17;1.25;;;21.00;69.20;;;;;;5075583;28;20046;-68
2022/06/09 12:14:28;;;;;;;3.65;1.40;;;20.80;70.10;;;;;;5089443;28;20040;-68
2022/06/09 12:17:04;;;;;;;3.22;1.50;;;20.50;71.70;;;;;;5085296;28;20101;-68
2022/06/09 12:19:36;;;;;;;7.60;1.13;;;20.40;72.40;;;;;;5086695;28;20040;-69
2022/06/09 12:22:34;;;;;;;4.80;1.40;;;20.30;72.70;;;;;;5086458;28;20672;-68
2022/06/09 12:25:21;;;;;;;3.25;1.10;;;20.20;73.70;;;;;;5087199;28;20726;-69
2022/06/09 12:27:52;;;;;;;3.92;1.02;;;20.20;73.50;;;;;;5084285;28;20392;-69
2022/06/09 12:30:28;;;;;;;3.90;1.30;;;20.20;74.20;;;;;;5080131;28;20075;-68
2022/06/09 12:33:33;;;;;;;4.22;1.00;;;20.30;74.20;;;;;;5085148;28;20113;-69
2022/06/09 12:36:04;;;;;;;4.65;1.02;;;20.30;72.90;;;;;;5089306;28;20078;-67
2022/06/09 12:38:36;;;;;;;2.88;1.10;;;20.40;72.80;;;;;;5086672;28;20044;-69
2022/06/09 12:41:16;;;;;;;3.13;1.40;;;20.50;72.20;;;;;;5086766;28;20052;-71
2022/06/09 12:43:44;;;;;;;3.30;1.10;;;20.70;71.60;;;;;;5084102;28;20102;-69
2022/06/09 12:46:24;;;;;;;3.67;1.13;;;20.80;71.30;;;;;;5065036;28;20466;-69
2022/06/09 12:48:55;;;;;;;3.17;0.88;;;20.90;71.90;;;;;;5064879;28;20063;-67
2022/06/09 12:51:26;;;;;;;4.05;1.50;;;21.10;70.20;;;;;;5062536;28;20036;-68
2022/06/09 12:54:06;;;;;;;2.85;1.13;;;21.10;69.90;;;;;;5062592;28;20324;-68
2022/06/09 12:56:41;;;;;;;2.58;0.80;;;21.10;69.50;;;;;;5067275;28;20033;-68
2022/06/09 12:59:26;;;;;;;3.25;1.10;;;21.20;69.10;;;;;;5065979;28;20036;-68
2022/06/09 13:01:57;;;;;;;1.67;0.90;;;21.30;69.00;;;;;;5072994;28;20059;-67
2022/06/09 13:04:27;;;;;;;5.47;1.52;;;21.30;69.40;;;;;;5076568;28;20045;-68
2022/06/09 13:06:56;;;;;;;6.13;1.15;;;21.30;69.50;;;;;;5076446;28;20051;-68
2022/06/09 13:09:27;;;;;;;3.05;0.90;;;21.30;69.00;;;;;;5078570;28;20044;-68
2022/06/09 13:14:43;;;;;;;6.00;1.35;;;21.40;68.80;;;;;;5078614;28;20044;-68
2022/06/09 13:17:18;;;;;;;3.05;1.20;;;21.50;68.40;;;;;;5077571;28;20065;-70
2022/06/09 13:19:56;;;;;;;3.47;1.45;;;21.50;67.90;;;;;;5078786;28;20051;-69
2022/06/09 13:22:24;;;;;;;5.10;1.10;;;21.50;67.30;;;;;;5079601;28;20440;-69
2022/06/09 13:24:51;;;;;;;2.42;1.20;;;21.30;67.10;;;;;;5079102;28;20492;-69
2022/06/09 13:27:22;;;;;;;1.42;0.70;;;21.30;67.00;;;;;;5077747;28;20042;-68
2022/06/09 13:30:00;;;;;;;2.55;0.82;;;21.20;67.00;;;;;;5078578;28;20037;-69
2022/06/09 13:32:37;;;;;;;2.67;1.02;;;21.10;67.50;;;;;;5077971;28;20540;-68
2022/06/09 13:35:26;;;;;;;1.50;0.80;;;21.10;67.60;;;;;;5076100;28;20518;-68
2022/06/09 13:38:02;;;;;;;2.97;1.08;;;21.10;67.60;;;;;;5077370;28;20040;-69